createdAt,value
2018-09-20T00:00:43.630Z,73.53
2018-09-20T00:01:43.644Z,73.67
2018-09-20T00:02:43.813Z,73.63
2018-09-20T00:03:43.891Z,73.70
2018-09-20T00:04:43.995Z,73.74
2018-09-20T00:05:44.106Z,73.76
2018-09-20T00:06:44.225Z,73.78
2018-09-20T00:07:44.521Z,73.80
2018-09-20T00:08:44.716Z,73.90
2018-09-20T00:09:45.093Z,73.91
2018-09-20T00:10:45.157Z,73.92
2018-09-20T00:11:45.269Z,73.95
2018-09-20T00:12:45.390Z,73.98
2018-09-20T00:13:45.487Z,73.99
2018-09-20T00:14:45.833Z,74.01
2018-09-20T00:15:46.168Z,74.04
2018-09-20T00:16:46.495Z,74.10
2018-09-20T00:17:46.618Z,74.13
2018-09-20T00:18:46.658Z,74.19
2018-09-20T00:19:46.872Z,74.23
2018-09-20T00:20:46.865Z,74.37
2018-09-20T00:21:47.054Z,74.48
2018-09-20T00:22:47.249Z,74.54
2018-09-20T00:23:47.292Z,74.65
2018-09-20T00:24:47.572Z,74.67
2018-09-20T00:25:47.617Z,74.76
2018-09-20T00:26:47.727Z,74.80
2018-09-20T00:27:48.502Z,74.90
2018-09-20T00:28:48.129Z,74.87
2018-09-20T00:29:48.866Z,74.92
2018-09-20T00:30:49.472Z,74.93
2018-09-20T00:31:49.053Z,74.96
2018-09-20T00:32:49.482Z,74.89
2018-09-20T00:33:50.006Z,74.84
2018-09-20T00:34:50.841Z,74.87
2018-09-20T00:35:51.039Z,74.94
2018-09-20T00:36:51.134Z,74.85
2018-09-20T00:37:51.464Z,74.86
2018-09-20T00:38:51.468Z,74.86
2018-09-20T00:39:51.282Z,74.87
2018-09-20T00:40:51.685Z,74.94
2018-09-20T00:41:52.088Z,74.93
2018-09-20T00:42:52.199Z,74.97
2018-09-20T00:43:52.297Z,75.03
2018-09-20T00:44:52.391Z,75.14
2018-09-20T00:45:52.388Z,75.27
2018-09-20T00:46:52.690Z,75.32
2018-09-20T00:47:53.041Z,75.41
2018-09-20T00:48:53.367Z,75.46
2018-09-20T00:49:53.659Z,75.51
2018-09-20T00:50:54.247Z,75.57
2018-09-20T00:51:54.228Z,75.64
2018-09-20T00:52:54.438Z,75.68
2018-09-20T00:53:54.590Z,75.71
2018-09-20T00:54:55.042Z,75.79
2018-09-20T00:55:55.148Z,75.82
2018-09-20T00:57:55.687Z,75.95
2018-09-20T00:58:55.694Z,76.06
2018-09-20T00:59:55.828Z,76.13
2018-09-20T01:00:55.972Z,76.25
2018-09-20T01:01:56.234Z,76.20
2018-09-20T01:02:56.361Z,76.29
2018-09-20T01:03:56.468Z,76.43
2018-09-20T01:04:56.581Z,76.48
2018-09-20T01:05:56.862Z,76.63
2018-09-20T01:06:56.961Z,76.75
2018-09-20T01:07:57.008Z,76.85
2018-09-20T01:08:57.251Z,76.97
2018-09-20T01:09:57.392Z,77.09
2018-09-20T01:10:57.440Z,77.17
2018-09-20T01:11:57.551Z,77.26
2018-09-20T01:12:57.704Z,77.36
2018-09-20T01:13:57.792Z,77.45
2018-09-20T01:14:57.793Z,77.52
2018-09-20T01:15:57.936Z,77.61
2018-09-20T01:16:58.040Z,77.67
2018-09-20T01:17:58.172Z,77.74
2018-09-20T01:18:58.205Z,77.82
2018-09-20T01:19:58.258Z,77.87
2018-09-20T01:20:58.334Z,77.93
2018-09-20T01:21:58.427Z,77.91
2018-09-20T01:22:58.551Z,77.96
2018-09-20T01:23:58.684Z,78.06
2018-09-20T01:24:59.282Z,78.06
2018-09-20T01:25:59.574Z,78.03
2018-09-20T01:26:59.694Z,78.09
2018-09-20T01:27:59.952Z,78.13
2018-09-20T01:29:00.082Z,78.21
2018-09-20T01:30:00.499Z,78.27
2018-09-20T01:31:00.333Z,78.40
2018-09-20T01:32:00.439Z,78.48
2018-09-20T01:33:00.569Z,78.51
2018-09-20T01:34:00.699Z,78.58
2018-09-20T01:35:00.766Z,78.61
2018-09-20T01:36:00.982Z,78.64
2018-09-20T01:37:01.277Z,78.68
2018-09-20T01:38:01.904Z,78.71
2018-09-20T01:39:01.416Z,78.75
2018-09-20T01:40:02.183Z,78.83
2018-09-20T01:42:02.556Z,78.93
2018-09-20T01:43:03.162Z,79.12
2018-09-20T01:44:03.058Z,78.92
2018-09-20T01:45:03.985Z,78.89
2018-09-20T01:46:04.198Z,79.03
2018-09-20T01:47:04.644Z,79.21
2018-09-20T01:48:05.042Z,79.17
2018-09-20T01:49:05.146Z,79.16
2018-09-20T01:50:05.729Z,79.27
2018-09-20T01:51:06.173Z,79.52
2018-09-20T01:52:06.075Z,79.71
2018-09-20T01:53:06.812Z,79.91
2018-09-20T01:54:06.626Z,80.04
2018-09-20T01:55:07.116Z,80.16
2018-09-20T01:56:07.387Z,80.29
2018-09-20T01:57:07.427Z,80.39
2018-09-20T01:58:07.737Z,80.46
2018-09-20T01:59:08.121Z,80.60
2018-09-20T02:00:08.471Z,80.70
2018-09-20T02:01:08.499Z,80.80
2018-09-20T02:02:08.690Z,80.80
2018-09-20T02:03:09.080Z,80.82
2018-09-20T02:04:10.008Z,80.80
2018-09-20T02:05:09.677Z,80.83
2018-09-20T02:06:09.725Z,80.89
2018-09-20T02:07:09.768Z,80.97
2018-09-20T02:08:09.773Z,80.96
2018-09-20T02:09:09.800Z,81.09
2018-09-20T02:10:10.064Z,81.13
2018-09-20T02:11:10.323Z,81.26
2018-09-20T02:12:10.424Z,81.37
2018-09-20T02:13:10.560Z,81.47
2018-09-20T02:14:10.691Z,81.53
2018-09-20T02:15:11.058Z,81.59
2018-09-20T02:16:11.107Z,81.65
2018-09-20T02:17:11.565Z,81.74
2018-09-20T02:18:11.714Z,81.75
2018-09-20T02:19:11.885Z,81.79
2018-09-20T02:20:12.111Z,81.83
2018-09-20T02:21:12.228Z,81.87
2018-09-20T02:22:12.649Z,81.82
2018-09-20T02:23:12.764Z,81.92
2018-09-20T02:24:13.071Z,81.99
2018-09-20T02:25:13.371Z,82.04
2018-09-20T02:26:13.726Z,82.05
2018-09-20T02:27:14.090Z,82.10
2018-09-20T02:28:14.391Z,82.15
2018-09-20T02:29:14.429Z,82.19
2018-09-20T02:30:15.035Z,82.24
2018-09-20T02:31:14.540Z,82.28
2018-09-20T02:32:15.200Z,82.32
2018-09-20T02:33:15.429Z,82.47
2018-09-20T02:34:15.700Z,82.62
2018-09-20T02:35:16.107Z,82.51
2018-09-20T02:36:16.258Z,82.51
2018-09-20T02:37:16.684Z,82.52
2018-09-20T02:38:17.377Z,82.50
2018-09-20T02:39:17.355Z,82.52
2018-09-20T02:40:17.487Z,82.58
2018-09-20T02:41:17.682Z,82.58
2018-09-20T02:42:18.185Z,82.60
2018-09-20T02:43:17.750Z,82.63
2018-09-20T02:44:17.815Z,82.59
2018-09-20T02:45:18.560Z,82.59
2018-09-20T02:46:18.515Z,82.58
2018-09-20T02:47:19.656Z,82.60
2018-09-20T02:48:19.460Z,82.58
2018-09-20T02:49:20.056Z,82.67
2018-09-20T02:50:20.285Z,82.72
2018-09-20T02:51:20.399Z,82.76
2018-09-20T02:52:20.600Z,82.79
2018-09-20T02:53:20.612Z,82.88
2018-09-20T02:54:20.824Z,82.92
2018-09-20T02:55:20.931Z,82.98
2018-09-20T02:56:21.145Z,82.96
2018-09-20T02:57:21.306Z,83.04
2018-09-20T02:58:21.360Z,83.08
2018-09-20T02:59:21.365Z,83.17
2018-09-20T03:00:21.367Z,83.17
2018-09-20T03:01:21.389Z,83.24
2018-09-20T03:02:21.178Z,83.30
2018-09-20T03:03:21.593Z,83.37
2018-09-20T03:04:21.797Z,83.39
2018-09-20T03:05:22.005Z,83.41
2018-09-20T03:06:22.200Z,83.45
2018-09-20T03:07:22.200Z,83.47
2018-09-20T03:08:22.414Z,83.47
2018-09-20T03:09:22.383Z,83.52
2018-09-20T03:10:22.767Z,83.53
2018-09-20T03:11:23.075Z,83.55
2018-09-20T03:12:23.486Z,83.57
2018-09-20T03:13:23.935Z,83.61
2018-09-20T03:14:24.290Z,83.66
2018-09-20T03:15:24.476Z,83.71
2018-09-20T03:16:24.718Z,83.70
2018-09-20T03:17:24.858Z,83.65
2018-09-20T03:18:24.984Z,83.80
2018-09-20T03:19:25.001Z,83.94
2018-09-20T03:20:25.003Z,84.05
2018-09-20T03:21:25.128Z,84.14
2018-09-20T03:22:25.492Z,84.20
2018-09-20T03:23:25.552Z,84.23
2018-09-20T03:24:25.955Z,84.36
2018-09-20T03:25:26.231Z,84.38
2018-09-20T03:26:26.527Z,84.43
2018-09-20T03:27:26.946Z,84.48
2018-09-20T03:28:27.372Z,84.54
2018-09-20T03:29:27.688Z,84.56
2018-09-20T03:30:27.829Z,84.59
2018-09-20T03:31:27.854Z,84.64
2018-09-20T03:32:28.004Z,84.71
2018-09-20T03:33:28.336Z,84.78
2018-09-20T03:34:28.495Z,84.83
2018-09-20T03:35:28.618Z,84.88
2018-09-20T03:36:28.695Z,84.91
2018-09-20T03:37:28.726Z,84.98
2018-09-20T03:38:29.296Z,85.01
2018-09-20T03:39:29.324Z,85.04
2018-09-20T03:40:29.438Z,85.12
2018-09-20T03:41:29.459Z,85.16
2018-09-20T03:42:29.726Z,85.23
2018-09-20T03:43:29.984Z,85.23
2018-09-20T03:44:30.071Z,85.23
2018-09-20T03:45:30.098Z,85.21
2018-09-20T03:46:30.198Z,85.12
2018-09-20T03:47:30.474Z,85.09
2018-09-20T03:48:30.519Z,84.96
2018-09-20T03:49:30.622Z,84.88
2018-09-20T03:50:30.799Z,84.96
2018-09-20T03:51:31.005Z,84.97
2018-09-20T03:52:31.151Z,85.12
2018-09-20T03:53:31.572Z,85.25
2018-09-20T03:54:31.673Z,85.42
2018-09-20T03:55:31.789Z,85.58
2018-09-20T03:56:32.090Z,85.71
2018-09-20T03:57:32.109Z,85.81
2018-09-20T03:58:32.571Z,85.90
2018-09-20T03:59:32.789Z,86.01
2018-09-20T04:00:33.025Z,86.06
2018-09-20T04:01:33.440Z,86.08
2018-09-20T04:02:34.183Z,86.21
2018-09-20T04:03:34.786Z,86.35
2018-09-20T04:04:35.003Z,86.49
2018-09-20T04:05:34.905Z,86.59
2018-09-20T04:06:35.425Z,86.62
2018-09-20T04:07:35.748Z,86.68
2018-09-20T04:09:35.853Z,86.71
2018-09-20T04:10:36.061Z,86.74
2018-09-20T04:11:35.964Z,86.76
2018-09-20T04:12:36.158Z,86.77
2018-09-20T04:13:36.183Z,86.79
2018-09-20T04:14:36.608Z,86.83
2018-09-20T04:15:36.923Z,86.83
2018-09-20T04:16:37.100Z,86.88
2018-09-20T04:17:37.107Z,86.88
2018-09-20T04:18:37.116Z,86.86
2018-09-20T04:19:36.595Z,86.91
2018-09-20T04:20:37.809Z,86.92
2018-09-20T04:21:37.622Z,86.94
2018-09-20T04:22:37.918Z,86.94
2018-09-20T04:23:38.389Z,86.99
2018-09-20T04:24:38.816Z,87.00
2018-09-20T04:25:39.257Z,87.02
2018-09-20T04:27:39.560Z,87.05
2018-09-20T04:28:39.606Z,87.16
2018-09-20T04:29:39.771Z,87.04
2018-09-20T04:30:39.794Z,87.10
2018-09-20T04:31:40.320Z,87.09
2018-09-20T04:32:40.498Z,87.11
2018-09-20T04:33:40.533Z,87.16
2018-09-20T04:34:41.044Z,87.10
2018-09-20T04:35:40.656Z,87.20
2018-09-20T04:36:40.737Z,87.23
2018-09-20T04:37:40.937Z,87.19
2018-09-20T04:38:41.223Z,87.24
2018-09-20T04:39:41.414Z,87.31
2018-09-20T04:40:41.607Z,87.32
2018-09-20T04:41:41.981Z,87.27
2018-09-20T04:42:42.329Z,87.22
2018-09-20T04:43:42.669Z,87.45
2018-09-20T04:44:42.804Z,87.45
2018-09-20T04:45:42.875Z,87.42
2018-09-20T04:46:43.012Z,87.45
2018-09-20T04:47:43.134Z,87.42
2018-09-20T04:48:43.517Z,87.42
2018-09-20T04:49:43.613Z,87.44
2018-09-20T04:50:43.875Z,87.52
2018-09-20T04:51:44.021Z,87.57
2018-09-20T04:52:44.332Z,87.62
2018-09-20T04:53:44.418Z,87.64
2018-09-20T04:54:44.530Z,87.75
2018-09-20T04:55:44.800Z,87.73
2018-09-20T04:56:44.885Z,87.66
2018-09-20T04:57:44.999Z,87.78
2018-09-20T04:58:45.209Z,87.83
2018-09-20T04:59:45.516Z,87.89
2018-09-20T05:00:45.726Z,87.92
2018-09-20T05:01:45.729Z,88.03
2018-09-20T05:02:45.936Z,88.12
2018-09-20T05:03:46.173Z,88.13
2018-09-20T05:04:46.302Z,88.18
2018-09-20T05:05:46.372Z,88.27
2018-09-20T05:06:46.531Z,88.30
2018-09-20T05:07:46.824Z,88.29
2018-09-20T05:08:46.956Z,88.40
2018-09-20T05:09:47.145Z,88.44
2018-09-20T05:10:47.431Z,88.52
2018-09-20T05:11:47.644Z,88.60
2018-09-20T05:12:48.038Z,88.66
2018-09-20T05:13:48.457Z,88.73
2018-09-20T05:14:49.187Z,88.89
2018-09-20T05:15:49.802Z,88.95
2018-09-20T05:16:49.743Z,89.07
2018-09-20T05:17:50.223Z,89.07
2018-09-20T05:18:50.623Z,89.03
2018-09-20T05:19:51.376Z,89.00
2018-09-20T05:20:51.686Z,89.26
2018-09-20T05:21:51.578Z,89.32
2018-09-20T05:22:51.942Z,89.21
2018-09-20T05:23:52.278Z,89.27
2018-09-20T05:24:52.418Z,89.37
2018-09-20T05:25:52.516Z,89.46
2018-09-20T05:26:52.615Z,89.50
2018-09-20T05:27:52.755Z,89.54
2018-09-20T05:28:52.655Z,89.56
2018-09-20T05:29:53.273Z,89.53
2018-09-20T05:30:53.077Z,89.58
2018-09-20T05:31:53.473Z,89.51
2018-09-20T05:32:53.842Z,89.46
2018-09-20T05:33:54.410Z,89.49
2018-09-20T05:34:54.527Z,89.43
2018-09-20T05:35:54.538Z,89.44
2018-09-20T05:36:54.714Z,89.43
2018-09-20T05:37:54.710Z,89.40
2018-09-20T05:38:54.716Z,89.47
2018-09-20T05:39:54.853Z,89.57
2018-09-20T05:40:55.095Z,89.44
2018-09-20T05:41:55.336Z,89.38
2018-09-20T05:42:55.357Z,89.36
2018-09-20T05:43:55.850Z,89.35
2018-09-20T05:44:56.041Z,89.34
2018-09-20T05:45:56.164Z,89.36
2018-09-20T05:46:56.521Z,89.37
2018-09-20T05:47:56.975Z,89.40
2018-09-20T05:48:57.005Z,89.41
2018-09-20T05:49:57.122Z,89.41
2018-09-20T05:50:57.390Z,89.36
2018-09-20T05:51:57.394Z,89.39
2018-09-20T05:52:57.402Z,89.37
2018-09-20T05:53:57.546Z,89.46
2018-09-20T05:54:57.700Z,89.52
2018-09-20T05:55:57.844Z,89.46
2018-09-20T05:56:57.886Z,89.33
2018-09-20T05:57:58.103Z,89.39
2018-09-20T05:58:58.457Z,89.43
2018-09-20T05:59:58.658Z,89.42
2018-09-20T06:00:58.664Z,89.39
2018-09-20T06:01:58.726Z,89.37
2018-09-20T06:02:58.843Z,89.29
2018-09-20T06:03:58.969Z,89.30
2018-09-20T06:04:59.218Z,89.31
2018-09-20T06:05:59.612Z,89.49
2018-09-20T06:06:59.643Z,89.42
2018-09-20T06:07:59.887Z,89.35
2018-09-20T06:09:00.142Z,89.34
2018-09-20T06:10:00.623Z,89.21
2018-09-20T06:11:00.399Z,89.14
2018-09-20T06:12:00.471Z,89.15
2018-09-20T06:13:00.553Z,89.11
2018-09-20T06:14:00.641Z,89.04
2018-09-20T06:15:00.806Z,88.96
2018-09-20T06:16:00.887Z,88.95
2018-09-20T06:17:01.323Z,88.88
2018-09-20T06:18:01.764Z,88.83
2018-09-20T06:19:02.271Z,88.71
2018-09-20T06:20:02.007Z,88.64
2018-09-20T06:21:02.616Z,88.55
2018-09-20T06:22:02.710Z,88.41
2018-09-20T06:23:03.348Z,88.35
2018-09-20T06:24:03.511Z,88.28
2018-09-20T06:25:03.260Z,88.28
2018-09-20T06:26:04.295Z,88.29
2018-09-20T06:27:04.069Z,88.30
2018-09-20T13:13:20.980Z,20.79
2018-09-20T13:14:21.924Z,20.98
2018-09-20T13:15:50.578Z,20.74
2018-09-20T13:16:51.186Z,21.12
2018-09-20T13:17:51.544Z,21.24
2018-09-20T13:19:16.681Z,21.28
2018-09-20T13:20:16.877Z,21.33
2018-09-20T13:21:17.263Z,21.21
2018-09-20T13:22:17.476Z,21.17
2018-09-20T13:23:17.835Z,21.18
2018-09-20T13:24:38.587Z,21.31
2018-09-20T13:25:39.094Z,21.28
2018-09-20T13:26:39.054Z,21.60
2018-09-20T13:27:39.221Z,21.60
2018-09-20T13:29:36.504Z,21.46
2018-09-20T13:31:35.350Z,21.88
2018-09-20T13:32:36.226Z,21.92
2018-09-20T13:33:36.435Z,21.81
2018-09-20T13:34:36.865Z,21.80
2018-09-20T13:35:36.960Z,21.71
2018-09-20T13:36:37.071Z,21.58
2018-09-20T13:37:37.039Z,21.55
2018-09-20T13:38:37.247Z,21.47
2018-09-20T13:39:37.473Z,21.54
2018-09-20T13:41:37.704Z,21.57
2018-09-20T13:42:37.889Z,21.55
2018-09-20T13:43:38.158Z,21.38
2018-09-20T13:44:38.461Z,21.26
2018-09-20T13:45:38.770Z,21.05
2018-09-20T13:46:39.090Z,20.94
2018-09-20T13:47:39.280Z,20.78
2018-09-20T13:49:39.947Z,20.76
2018-09-20T13:50:39.571Z,21.40
2018-09-20T13:52:39.936Z,21.62
2018-09-20T13:53:39.852Z,21.37
2018-09-20T13:54:40.307Z,21.60
2018-09-20T13:55:40.685Z,21.34
2018-09-20T13:56:40.712Z,21.28
2018-09-20T13:57:40.705Z,21.16
2018-09-20T13:59:41.456Z,21.29
2018-09-20T14:00:41.594Z,21.33
2018-09-20T14:01:41.403Z,21.17
2018-09-20T14:02:41.745Z,21.07
2018-09-20T14:03:42.440Z,20.98
2018-09-20T14:04:42.573Z,21.36
2018-09-20T14:05:42.531Z,21.36
2018-09-20T14:07:43.166Z,21.72
2018-09-20T14:08:43.302Z,22.40
2018-09-20T14:09:43.681Z,22.79
2018-09-20T14:10:43.803Z,22.86
2018-09-20T14:11:43.638Z,22.84
2018-09-20T14:12:44.233Z,22.87
2018-09-20T14:13:44.248Z,22.88
2018-09-20T14:14:44.295Z,22.98
2018-09-20T14:16:59.968Z,23.15
2018-09-20T14:18:00.304Z,23.10
2018-09-20T14:19:00.615Z,23.45
2018-09-20T14:20:02.360Z,23.63
2018-09-20T14:21:02.652Z,23.49
2018-09-20T14:22:01.776Z,23.19
2018-09-20T14:23:01.931Z,22.99
2018-09-20T14:24:02.421Z,22.71
2018-09-20T14:25:02.640Z,22.66
2018-09-20T14:26:02.828Z,22.52
2018-09-20T14:27:03.376Z,22.68
2018-09-20T14:28:04.230Z,22.61
2018-09-20T14:29:04.442Z,22.64
2018-09-20T14:30:04.867Z,22.83
2018-09-20T14:31:04.696Z,22.59
2018-09-20T14:32:05.388Z,22.55
2018-09-20T14:33:05.706Z,22.42
2018-09-20T14:34:06.015Z,22.36
2018-09-20T14:35:06.497Z,22.40
2018-09-20T14:36:06.429Z,22.41
2018-09-20T14:37:06.651Z,22.68
2018-09-20T14:38:07.169Z,22.81
2018-09-20T14:39:06.955Z,22.86
2018-09-20T14:40:06.892Z,22.88
2018-09-20T14:41:07.380Z,22.77
2018-09-20T14:42:07.451Z,22.76
2018-09-20T14:43:07.564Z,22.78
2018-09-20T14:44:08.006Z,22.74
2018-09-20T14:45:08.244Z,22.72
2018-09-20T14:46:08.440Z,22.57
2018-09-20T14:47:09.068Z,22.69
2018-09-20T14:48:08.592Z,22.88
2018-09-20T14:49:09.047Z,22.83
2018-09-20T14:50:09.194Z,23.00
2018-09-20T14:51:09.361Z,22.95
2018-09-20T14:52:09.535Z,22.77
2018-09-20T14:53:09.635Z,23.03
2018-09-20T14:54:09.581Z,23.19
2018-09-20T14:55:10.289Z,23.20
2018-09-20T14:56:10.357Z,23.41
2018-09-20T14:57:10.937Z,23.29
2018-09-20T14:58:10.300Z,23.27
2018-09-20T14:59:11.029Z,23.27
2018-09-20T15:00:11.402Z,23.38
2018-09-20T15:01:11.258Z,23.38
2018-09-20T15:02:11.909Z,23.41
2018-09-20T15:03:12.223Z,23.46
2018-09-20T15:04:12.241Z,23.50
2018-09-20T15:05:12.375Z,23.49
2018-09-20T15:06:12.348Z,23.53
2018-09-20T15:07:12.666Z,23.59
2018-09-20T15:08:13.369Z,23.66
2018-09-20T15:09:13.236Z,23.64
2018-09-20T15:10:13.834Z,23.78
2018-09-20T15:11:13.931Z,23.97
2018-09-20T15:12:14.015Z,24.10
2018-09-20T15:13:14.213Z,24.12
2018-09-20T15:14:14.253Z,24.15
2018-09-20T15:15:14.800Z,24.53
2018-09-20T15:16:14.717Z,24.65
2018-09-20T15:17:14.606Z,24.55
2018-09-20T15:18:15.225Z,24.86
2018-09-20T15:19:15.306Z,24.72
2018-09-20T15:20:15.287Z,24.70
2018-09-20T15:21:15.680Z,24.76
2018-09-20T15:22:16.358Z,24.80
2018-09-20T15:23:16.377Z,24.98
2018-09-20T15:24:16.363Z,25.17
2018-09-20T15:25:16.929Z,25.01
2018-09-20T15:26:16.878Z,24.75
2018-09-20T15:27:17.583Z,24.77
2018-09-20T15:28:17.627Z,25.13
2018-09-20T15:29:17.943Z,25.18
2018-09-20T15:30:18.373Z,25.17
2018-09-20T15:31:18.879Z,25.07
2018-09-20T15:32:19.600Z,25.03
2018-09-20T15:33:20.021Z,24.95
2018-09-20T15:34:20.228Z,25.00
2018-09-20T15:35:20.662Z,25.03
2018-09-20T15:36:21.068Z,25.04
2018-09-20T15:37:21.173Z,24.95
2018-09-20T15:38:21.438Z,24.75
2018-09-20T15:39:21.799Z,24.68
2018-09-20T15:40:22.009Z,24.71
2018-09-20T15:41:22.070Z,25.01
2018-09-20T15:42:22.208Z,25.17
2018-09-20T15:43:22.295Z,25.21
2018-09-20T15:44:22.429Z,25.26
2018-09-20T15:45:22.669Z,25.21
2018-09-20T15:46:22.727Z,25.12
2018-09-20T15:48:22.566Z,24.99
2018-09-20T15:49:22.696Z,24.94
2018-09-20T15:50:22.846Z,24.95
2018-09-20T15:51:22.953Z,25.15
2018-09-20T15:52:23.392Z,25.71
2018-09-20T15:53:23.621Z,25.83
2018-09-20T15:54:23.622Z,25.60
2018-09-20T15:55:23.758Z,25.70
2018-09-20T15:57:24.026Z,25.90
2018-09-20T15:58:24.125Z,26.47
2018-09-20T15:59:24.235Z,26.25
2018-09-20T16:00:24.356Z,26.32
2018-09-20T16:01:24.599Z,26.56
2018-09-20T16:02:24.536Z,26.69
2018-09-20T16:03:25.072Z,26.94
2018-09-20T16:04:25.200Z,26.87
2018-09-20T16:05:25.109Z,26.84
2018-09-20T16:06:25.228Z,26.99
2018-09-20T16:07:25.174Z,27.14
2018-09-20T16:08:25.623Z,27.23
2018-09-20T16:09:26.334Z,27.40
2018-09-20T16:10:26.482Z,27.54
2018-09-20T16:11:26.653Z,27.57
2018-09-20T16:12:26.583Z,27.72
2018-09-20T16:13:26.896Z,28.00
2018-09-20T16:14:27.462Z,28.21
2018-09-20T16:15:27.638Z,28.53
2018-09-20T16:17:28.089Z,28.68
2018-09-20T16:18:27.925Z,29.07
2018-09-20T16:19:28.696Z,29.27
2018-09-20T16:20:28.923Z,29.38
2018-09-20T16:21:28.746Z,29.55
2018-09-20T16:22:29.011Z,29.60
2018-09-20T16:23:29.458Z,29.52
2018-09-20T16:24:29.460Z,29.49
2018-09-20T16:25:29.261Z,29.40
2018-09-20T16:26:30.100Z,29.41
2018-09-20T16:27:30.201Z,29.39
2018-09-20T16:28:30.393Z,29.47
2018-09-20T16:29:30.623Z,29.59
2018-09-20T16:30:30.567Z,29.73
2018-09-20T16:31:30.893Z,29.90
2018-09-20T16:32:31.637Z,29.90
2018-09-20T16:33:31.334Z,29.98
2018-09-20T16:34:31.261Z,30.30
2018-09-20T16:35:31.751Z,30.64
2018-09-20T16:36:32.502Z,31.13
2018-09-20T16:37:32.516Z,31.60
2018-09-20T16:38:32.848Z,31.81
2018-09-20T16:39:33.354Z,32.15
2018-09-20T16:40:33.778Z,32.33
2018-09-20T16:41:33.979Z,32.65
2018-09-20T16:42:34.296Z,32.91
2018-09-20T16:43:34.711Z,33.26
2018-09-20T16:44:34.724Z,33.43
2018-09-20T16:45:35.747Z,33.74
2018-09-20T16:46:35.764Z,33.89
2018-09-20T16:47:36.273Z,34.00
2018-09-20T16:48:36.584Z,34.29
2018-09-20T16:49:36.259Z,34.40
2018-09-20T16:50:37.128Z,34.73
2018-09-20T16:51:37.107Z,34.87
2018-09-20T16:52:37.621Z,35.21
2018-09-20T16:53:37.735Z,35.37
2018-09-20T16:54:37.841Z,35.94
2018-09-20T16:55:38.031Z,35.80
2018-09-20T16:56:38.378Z,35.93
2018-09-20T16:57:38.944Z,36.08
2018-09-20T16:58:38.613Z,36.19
2018-09-20T16:59:39.077Z,36.39
2018-09-20T17:00:39.486Z,36.55
2018-09-20T17:01:39.563Z,36.77
2018-09-20T17:02:39.561Z,36.86
2018-09-20T17:03:40.445Z,37.00
2018-09-20T17:04:40.729Z,37.30
2018-09-20T17:05:40.660Z,37.42
2018-09-20T17:06:41.103Z,37.59
2018-09-20T17:07:41.041Z,37.94
2018-09-20T17:08:41.694Z,38.04
2018-09-20T17:09:41.972Z,38.25
2018-09-20T17:10:41.950Z,38.41
2018-09-20T17:11:42.507Z,38.57
2018-09-20T17:12:42.170Z,38.79
2018-09-20T17:13:42.370Z,39.13
2018-09-20T17:14:42.403Z,39.09
2018-09-20T17:15:42.973Z,39.43
2018-09-20T17:16:43.133Z,39.37
2018-09-20T17:17:42.949Z,39.48
2018-09-20T17:18:43.526Z,39.61
2018-09-20T17:19:43.833Z,39.80
2018-09-20T17:20:44.057Z,39.88
2018-09-20T17:21:44.003Z,40.11
2018-09-20T17:22:44.848Z,40.21
2018-09-20T17:23:45.253Z,40.50
2018-09-20T17:24:44.974Z,40.61
2018-09-20T17:25:45.711Z,40.70
2018-09-20T17:26:45.694Z,40.97
2018-09-20T17:27:46.176Z,41.08
2018-09-20T17:28:46.369Z,41.33
2018-09-20T17:29:46.787Z,41.42
2018-09-20T17:30:46.712Z,41.51
2018-09-20T17:31:47.528Z,41.75
2018-09-20T17:32:47.203Z,41.78
2018-09-20T17:33:47.328Z,42.08
2018-09-20T17:34:47.574Z,42.25
2018-09-20T17:35:47.588Z,42.35
2018-09-20T17:36:47.808Z,42.58
2018-09-20T17:37:48.272Z,42.65
2018-09-20T17:38:47.900Z,42.78
2018-09-20T17:39:48.593Z,42.99
2018-09-20T17:40:48.776Z,43.14
2018-09-20T17:41:48.477Z,43.35
2018-09-20T17:42:49.223Z,43.37
2018-09-20T17:43:50.051Z,43.70
2018-09-20T17:44:49.755Z,43.81
2018-09-20T17:45:50.168Z,44.02
2018-09-20T17:46:50.459Z,44.00
2018-09-20T17:47:51.100Z,44.24
2018-09-20T17:48:51.405Z,44.36
2018-09-20T17:49:51.453Z,44.52
2018-09-20T17:50:51.639Z,44.80
2018-09-20T17:51:52.177Z,44.94
2018-09-20T17:52:52.263Z,45.15
2018-09-20T17:53:52.308Z,45.15
2018-09-20T17:54:52.474Z,45.14
2018-09-20T17:55:52.706Z,45.29
2018-09-20T17:56:52.636Z,45.44
2018-09-20T17:57:52.836Z,45.48
2018-09-20T17:58:52.934Z,45.67
2018-09-20T17:59:53.025Z,45.83
2018-09-20T18:00:53.548Z,45.86
2018-09-20T18:01:53.254Z,45.98
2018-09-20T18:02:53.496Z,46.25
2018-09-20T18:03:53.944Z,46.17
2018-09-20T18:04:54.110Z,46.19
2018-09-20T18:05:54.208Z,46.35
2018-09-20T18:06:54.445Z,46.44
2018-09-20T18:07:54.453Z,46.52
2018-09-20T18:08:55.240Z,46.73
2018-09-20T18:09:55.504Z,46.75
2018-09-20T18:10:56.172Z,46.85
2018-09-20T18:11:55.700Z,46.86
2018-09-20T18:12:56.105Z,46.97
2018-09-20T18:13:56.464Z,46.97
2018-09-20T18:14:56.913Z,47.15
2018-09-20T18:15:57.492Z,47.15
2018-09-20T18:16:57.563Z,47.33
2018-09-20T18:17:57.735Z,47.47
2018-09-20T18:18:57.644Z,47.57
2018-09-20T18:19:58.218Z,47.71
2018-09-20T18:20:58.508Z,47.90
2018-09-20T18:21:58.442Z,47.96
2018-09-20T18:22:58.531Z,48.28
2018-09-20T18:23:58.856Z,48.48
2018-09-20T18:24:58.923Z,48.53
2018-09-20T18:25:59.554Z,48.68
2018-09-20T18:26:59.557Z,48.98
2018-09-20T18:27:59.724Z,49.15
2018-09-20T18:28:59.890Z,49.03
2018-09-20T18:29:59.963Z,49.05
2018-09-20T18:30:59.862Z,49.19
2018-09-20T18:32:00.515Z,49.14
2018-09-20T18:33:00.466Z,49.24
2018-09-20T18:34:03.840Z,49.57
2018-09-20T18:35:01.254Z,49.52
2018-09-20T18:36:01.196Z,49.75
2018-09-20T18:37:02.069Z,49.72
2018-09-20T18:38:02.362Z,49.86
2018-09-20T18:39:02.904Z,50.03
2018-09-20T18:40:03.524Z,50.20
2018-09-20T18:41:03.835Z,50.35
2018-09-20T18:42:04.054Z,50.54
2018-09-20T18:43:04.376Z,50.70
2018-09-20T18:44:04.441Z,50.80
2018-09-20T18:45:04.789Z,51.04
2018-09-20T18:46:04.999Z,51.08
2018-09-20T18:47:05.023Z,51.24
2018-09-20T18:48:05.336Z,51.32
2018-09-20T18:49:05.444Z,51.50
2018-09-20T18:50:05.877Z,51.76
2018-09-20T18:51:06.052Z,51.74
2018-09-20T18:52:06.268Z,51.80
2018-09-20T18:53:06.898Z,52.06
2018-09-20T18:54:06.897Z,52.27
2018-09-20T18:55:06.387Z,52.19
2018-09-20T18:56:07.088Z,52.38
2018-09-20T18:57:06.440Z,52.74
2018-09-20T18:58:07.554Z,52.82
2018-09-20T18:59:07.504Z,52.94
2018-09-20T19:00:07.730Z,53.23
2018-09-20T19:01:07.891Z,53.31
2018-09-20T19:02:08.044Z,53.46
2018-09-20T19:03:08.422Z,53.60
2018-09-20T19:04:08.686Z,53.76
2018-09-20T19:05:09.626Z,54.01
2018-09-20T19:06:09.492Z,54.07
2018-09-20T19:07:10.181Z,54.15
2018-09-20T19:08:10.414Z,54.14
2018-09-20T19:09:10.301Z,54.18
2018-09-20T19:10:10.874Z,54.25
2018-09-20T19:11:11.154Z,54.33
2018-09-20T19:12:11.271Z,54.34
2018-09-20T19:13:11.427Z,54.44
2018-09-20T19:14:11.542Z,54.61
2018-09-20T19:15:11.523Z,54.67
2018-09-20T19:16:11.878Z,54.82
2018-09-20T19:17:12.470Z,54.96
2018-09-20T19:18:12.494Z,54.99
2018-09-20T19:19:12.296Z,55.04
2018-09-20T19:20:12.721Z,55.20
2018-09-20T19:21:13.152Z,55.33
2018-09-20T19:22:13.645Z,55.44
2018-09-20T19:23:13.670Z,55.54
2018-09-20T19:24:13.750Z,55.49
2018-09-20T19:26:13.797Z,55.63
2018-09-20T19:27:13.726Z,55.97
2018-09-20T19:28:14.348Z,56.11
2018-09-20T19:29:14.424Z,56.18
2018-09-20T19:30:14.912Z,56.31
2018-09-20T19:31:14.741Z,56.37
2018-09-20T19:32:14.723Z,56.45
2018-09-20T19:33:15.154Z,56.55
2018-09-20T19:34:15.771Z,56.65
2018-09-20T19:35:16.134Z,56.79
2018-09-20T19:36:16.284Z,56.85
2018-09-20T19:37:16.287Z,56.99
2018-09-20T19:38:16.238Z,56.96
2018-09-20T19:39:16.475Z,57.07
2018-09-20T19:40:17.224Z,57.04
2018-09-20T19:41:17.255Z,57.13
2018-09-20T19:42:17.867Z,57.19
2018-09-20T19:43:17.749Z,57.20
2018-09-20T19:44:18.849Z,57.25
2018-09-20T19:45:18.821Z,57.31
2018-09-20T19:46:19.655Z,57.40
2018-09-20T19:47:20.067Z,57.44
2018-09-20T19:48:22.903Z,57.47
2018-09-20T19:49:20.402Z,57.49
2018-09-20T19:50:21.313Z,57.61
2018-09-20T19:51:21.629Z,57.72
2018-09-20T19:52:21.673Z,57.78
2018-09-20T19:53:21.939Z,57.83
2018-09-20T19:54:21.953Z,57.79
2018-09-20T19:55:22.041Z,57.88
2018-09-20T19:56:22.015Z,57.95
2018-09-20T19:57:22.381Z,58.14
2018-09-20T19:58:22.703Z,58.14